Time;durP1;ratioP1;P1;durP2;ratioP2;P2;SDS_P1;SDS_P2;PMS_P1;PMS_P2;Temp;Humidity;BMP_temperature;BMP_pressure;BME280_temperature;BME280_humidity;BME280_pressure;Samples;Min_cycle;Max_cycle;Signal;HPM_P1;HPM_P2
2023/03/14 00:01:33;;;;;;;;;;;205.70;1996.80;;;;;;5065554;28;19909;-77
2023/03/14 00:03:59;;;;;;;;;;;205.70;1996.80;;;;;;5066263;28;20353;-77
2023/03/14 00:06:25;;;;;;;;;;;205.60;2022.40;;;;;;5052334;28;19908;-77
2023/03/14 00:08:51;;;;;;;;;;;230.60;2022.40;;;;;;5061295;28;19916;-77
2023/03/14 00:11:19;;;;;;;;;;;205.70;2022.40;;;;;;5072009;28;19908;-77
2023/03/14 00:13:51;;;;;;;;;;;205.60;1996.80;;;;;;5063440;28;19909;-76
2023/03/14 00:16:16;;;;;;;;;;;205.60;1996.80;;;;;;5055417;28;19998;-77
2023/03/14 00:18:42;;;;;;;;;;;205.60;1996.80;;;;;;5063400;28;19932;-76
2023/03/14 00:21:09;;;;;;;;;;;205.60;2022.40;;;;;;5051948;28;19905;-76
2023/03/14 00:23:35;;;;;;;;;;;205.60;2022.40;;;;;;5070731;28;19904;-77
2023/03/14 00:26:01;;;;;;;;;;;205.60;2022.40;;;;;;5062164;28;19904;-76
2023/03/14 00:28:27;;;;;;;;;;;205.60;2022.40;;;;;;5058093;28;19985;-76
2023/03/14 00:30:53;;;;;;;;;;;205.60;2022.40;;;;;;5073438;28;20378;-77
2023/03/14 00:33:18;;;;;;;;;;;205.60;2022.40;;;;;;5071982;28;19919;-77
2023/03/14 00:35:51;;;;;;;;;;;205.50;2022.40;;;;;;5060059;28;19911;-77
2023/03/14 00:38:17;;;;;;;;;;;205.50;2022.40;;;;;;5059683;28;19904;-77
2023/03/14 00:40:42;;;;;;;;;;;205.50;2048.00;;;;;;5059490;28;19905;-76
2023/03/14 00:43:08;;;;;;;;;;;205.50;2048.00;;;;;;5051685;28;19955;-77
2023/03/14 00:45:34;;;;;;;;;;;205.50;2048.00;;;;;;5053843;28;19909;-76
2023/03/14 00:48:00;;;;;;;;;;;205.50;2048.00;;;;;;5064292;28;20320;-77
2023/03/14 00:50:25;;;;;;;;;;;205.50;2048.00;;;;;;5066119;28;19958;-76
2023/03/14 00:52:51;;;;;;;;;;;205.50;2073.60;;;;;;5053082;28;20367;-77
2023/03/14 00:55:17;;;;;;;;;;;205.40;2073.60;;;;;;5065229;28;19916;-77
2023/03/14 00:57:42;;;;;;;;;;;205.40;2073.60;;;;;;5061430;28;19911;-77
2023/03/14 01:00:11;;;;;;;;;;;205.40;2073.60;;;;;;5059859;28;19905;-76
2023/03/14 01:02:37;;;;;;;;;;;205.50;2073.60;;;;;;5073250;28;20403;-77
2023/03/14 01:05:02;;;;;;;;;;;205.50;2048.00;;;;;;5059536;28;19905;-76
2023/03/14 01:07:28;;;;;;;;;;;205.50;2048.00;;;;;;5062915;28;20075;-77
2023/03/14 01:09:53;;;;;;;;;;;205.50;2022.40;;;;;;5068227;28;19920;-76
2023/03/14 01:12:19;;;;;;;;;;;205.50;1996.80;;;;;;5073090;28;19940;-76
2023/03/14 01:14:44;;;;;;;;;;;205.60;1971.20;;;;;;5088577;28;20352;-77
2023/03/14 01:17:10;;;;;;;;;;;205.60;1945.60;;;;;;5072973;28;19904;-77
2023/03/14 01:19:35;;;;;;;;;;;205.70;1920.00;;;;;;5072826;28;20380;-77
2023/03/14 01:22:01;;;;;;;;;;;205.70;1920.00;;;;;;5072821;28;19991;-77
2023/03/14 01:24:26;;;;;;;;;;;230.40;1894.40;;;;;;5071518;28;19904;-77
2023/03/14 01:26:52;;;;;;;;;;;230.40;1894.40;;;;;;5072818;28;19904;-76
2023/03/14 01:29:17;;;;;;;;;;;230.40;1868.80;;;;;;5072693;28;19952;-76
2023/03/14 01:31:43;;;;;;;;;;;230.40;1843.20;;;;;;5071377;28;19912;-76
2023/03/14 01:34:09;;;;;;;;;;;230.50;1817.60;;;;;;5073023;28;20387;-76
2023/03/14 01:36:34;;;;;;;;;;;230.50;1817.60;;;;;;5072631;28;20389;-76
2023/03/14 01:39:00;;;;;;;;;;;230.50;1817.60;;;;;;5075682;28;19911;-77
2023/03/14 01:41:26;;;;;;;;;;;230.50;1792.00;;;;;;5076556;28;19915;-77
2023/03/14 01:43:52;;;;;;;;;;;230.50;1792.00;;;;;;5076394;28;19915;-77
2023/03/14 01:46:20;;;;;;;;;;;230.60;1792.00;;;;;;5075049;28;20265;-77
2023/03/14 01:49:12;;;;;;;;;;;230.60;1792.00;;;;;;5076338;28;20284;-76
2023/03/14 01:51:40;;;;;;;;;;;230.60;1792.00;;;;;;5070961;28;20356;-77
2023/03/14 01:54:26;;;;;;;;;;;230.60;1766.40;;;;;;5076128;28;19905;-77
2023/03/14 01:56:54;;;;;;;;;;;230.60;1792.00;;;;;;5065331;28;19904;-77
2023/03/14 01:59:20;;;;;;;;;;;230.60;1766.40;;;;;;5074652;28;19910;-77
2023/03/14 02:01:47;;;;;;;;;;;230.60;1766.40;;;;;;5076397;28;20003;-77
2023/03/14 02:04:14;;;;;;;;;;;230.60;1766.40;;;;;;5075843;28;19988;-76
2023/03/14 02:07:02;;;;;;;;;;;230.60;1766.40;;;;;;5076151;28;19938;-76
2023/03/14 02:09:29;;;;;;;;;;;230.60;1766.40;;;;;;5053872;28;19913;-77
2023/03/14 02:11:54;;;;;;;;;;;230.60;1766.40;;;;;;5036359;28;20421;-77
2023/03/14 02:14:31;;;;;;;;;;;230.60;1766.40;;;;;;5036943;28;19999;-77
2023/03/14 02:16:57;;;;;;;;;;;230.60;1766.40;;;;;;5053642;28;20300;-77
2023/03/14 02:19:31;;;;;;;;;;;230.60;1766.40;;;;;;5037030;28;19996;-77
2023/03/14 02:22:10;;;;;;;;;;;230.60;1766.40;;;;;;5036726;28;19931;-77
2023/03/14 02:24:45;;;;;;;;;;;230.60;1766.40;;;;;;5036954;28;19912;-77
2023/03/14 02:27:18;;;;;;;;;;;230.60;1792.00;;;;;;5040575;28;19998;-77
2023/03/14 02:29:55;;;;;;;;;;;230.60;1792.00;;;;;;5036555;28;19905;-77
2023/03/14 02:32:22;;;;;;;;;;;230.60;1792.00;;;;;;5047464;28;19904;-77
2023/03/14 02:34:50;;;;;;;;;;;230.60;1817.60;;;;;;5053049;28;19942;-76
2023/03/14 02:37:17;;;;;;;;;;;230.50;1817.60;;;;;;5053444;28;19911;-77
2023/03/14 02:39:44;;;;;;;;;;;230.50;1817.60;;;;;;5036292;28;20321;-76
2023/03/14 02:42:10;;;;;;;;;;;230.50;1817.60;;;;;;5036371;28;20383;-75
2023/03/14 02:44:35;;;;;;;;;;;230.50;1817.60;;;;;;5053070;28;19908;-75
2023/03/14 02:47:03;;;;;;;;;;;230.50;1817.60;;;;;;5076810;28;20390;-77
2023/03/14 02:49:30;;;;;;;;;;;230.50;1843.20;;;;;;5069313;28;19911;-77
2023/03/14 02:51:55;;;;;;;;;;;230.50;1843.20;;;;;;5075186;28;19975;-77
2023/03/14 02:54:21;;;;;;;;;;;230.50;1817.60;;;;;;5073713;28;20372;-77
2023/03/14 02:56:47;;;;;;;;;;;230.50;1843.20;;;;;;5080393;28;19912;-77
2023/03/14 02:59:12;;;;;;;;;;;230.50;1843.20;;;;;;5090249;28;19910;-77
2023/03/14 03:01:38;;;;;;;;;;;230.50;1843.20;;;;;;5090854;28;19904;-77
2023/03/14 03:04:03;;;;;;;;;;;230.40;1843.20;;;;;;5074919;28;19904;-77
2023/03/14 03:06:29;;;;;;;;;;;230.40;1843.20;;;;;;5073706;28;19904;-77
2023/03/14 03:08:55;;;;;;;;;;;230.50;1843.20;;;;;;5074714;28;19912;-76
2023/03/14 03:11:20;;;;;;;;;;;230.50;1817.60;;;;;;5073509;28;19908;-77
2023/03/14 03:13:46;;;;;;;;;;;230.40;1843.20;;;;;;5074515;28;19908;-77
2023/03/14 03:16:13;;;;;;;;;;;230.40;1843.20;;;;;;5074672;28;19908;-77
2023/03/14 03:18:39;;;;;;;;;;;230.40;1843.20;;;;;;5074360;28;19904;-77
2023/03/14 03:21:05;;;;;;;;;;;230.40;1817.60;;;;;;5073090;28;19911;-77
2023/03/14 03:23:31;;;;;;;;;;;230.40;1817.60;;;;;;5073160;28;19908;-77
2023/03/14 03:25:56;;;;;;;;;;;230.40;1843.20;;;;;;5074351;28;19919;-77
2023/03/14 03:28:22;;;;;;;;;;;230.40;1843.20;;;;;;5072602;28;19913;-77
2023/03/14 03:30:47;;;;;;;;;;;230.40;1843.20;;;;;;5074187;28;20010;-77
2023/03/14 03:33:13;;;;;;;;;;;205.70;1868.80;;;;;;5089670;28;19962;-77
2023/03/14 03:35:42;;;;;;;;;;;205.70;1843.20;;;;;;5073085;28;20307;-77
2023/03/14 03:38:08;;;;;;;;;;;205.70;1868.80;;;;;;5089052;28;19916;-77
2023/03/14 03:40:33;;;;;;;;;;;205.70;1868.80;;;;;;5074101;28;19931;-77
2023/03/14 03:43:00;;;;;;;;;;;205.70;1868.80;;;;;;5073836;28;20368;-77
2023/03/14 03:45:26;;;;;;;;;;;205.70;1843.20;;;;;;5072961;28;19919;-77
2023/03/14 03:47:51;;;;;;;;;;;205.70;1868.80;;;;;;5073988;28;19971;-77
2023/03/14 03:50:17;;;;;;;;;;;205.70;1868.80;;;;;;5073907;28;19908;-77
2023/03/14 03:52:42;;;;;;;;;;;205.70;1868.80;;;;;;5072690;28;19904;-77
2023/03/14 03:55:08;;;;;;;;;;;205.70;1868.80;;;;;;5073958;28;19991;-77
2023/03/14 03:57:33;;;;;;;;;;;205.70;1868.80;;;;;;5073274;28;19909;-77
2023/03/14 03:59:59;;;;;;;;;;;205.70;1868.80;;;;;;5073619;28;19908;-77
2023/03/14 04:02:25;;;;;;;;;;;205.60;1894.40;;;;;;5073789;28;19908;-77
2023/03/14 04:04:50;;;;;;;;;;;205.60;1894.40;;;;;;5074237;28;20241;-77
2023/03/14 04:07:16;;;;;;;;;;;230.40;1868.80;;;;;;5088640;28;19931;-77
2023/03/14 04:09:41;;;;;;;;;;;205.70;1894.40;;;;;;5072271;28;20307;-77
2023/03/14 04:12:07;;;;;;;;;;;205.60;1894.40;;;;;;5073265;28;20280;-76
2023/03/14 04:14:32;;;;;;;;;;;205.60;1894.40;;;;;;5089318;28;19938;-77
2023/03/14 04:16:58;;;;;;;;;;;205.60;1894.40;;;;;;5072587;28;19913;-77
2023/03/14 04:19:23;;;;;;;;;;;205.50;1920.00;;;;;;5072599;28;19904;-77
2023/03/14 04:21:49;;;;;;;;;;;205.50;1920.00;;;;;;5073792;28;20389;-77
2023/03/14 04:24:14;;;;;;;;;;;205.50;1920.00;;;;;;5072356;28;19904;-77
2023/03/14 04:26:40;;;;;;;;;;;205.50;1920.00;;;;;;5073342;28;20562;-77
2023/03/14 04:29:06;;;;;;;;;;;205.50;1920.00;;;;;;5072273;28;20011;-77
2023/03/14 04:31:31;;;;;;;;;;;205.50;1945.60;;;;;;5072339;28;19905;-77
2023/03/14 04:33:57;;;;;;;;;;;205.50;1945.60;;;;;;5078181;28;19973;-76
2023/03/14 04:36:22;;;;;;;;;;;205.50;1945.60;;;;;;5076195;28;19909;-77
2023/03/14 04:38:48;;;;;;;;;;;205.50;1945.60;;;;;;5071807;28;19912;-76
2023/03/14 04:41:13;;;;;;;;;;;205.50;1945.60;;;;;;5072145;28;19904;-77
2023/03/14 04:43:39;;;;;;;;;;;205.50;1945.60;;;;;;5073546;28;20342;-77
2023/03/14 04:46:04;;;;;;;;;;;205.50;1945.60;;;;;;5072151;28;19978;-76
2023/03/14 04:48:30;;;;;;;;;;;205.50;1945.60;;;;;;5073385;28;19916;-77
2023/03/14 04:50:55;;;;;;;;;;;205.50;1945.60;;;;;;5073463;28;20383;-77
2023/03/14 04:53:21;;;;;;;;;;;205.40;1971.20;;;;;;5073205;28;20272;-77
2023/03/14 04:55:50;;;;;;;;;;;205.40;1971.20;;;;;;5073519;28;19943;-77
2023/03/14 04:58:16;;;;;;;;;;;205.40;1971.20;;;;;;5088614;28;20356;-76
2023/03/14 05:00:42;;;;;;;;;;;205.40;1996.80;;;;;;5071899;28;19910;-76
2023/03/14 05:03:07;;;;;;;;;;;205.30;1971.20;;;;;;5072434;28;19958;-76
2023/03/14 05:05:33;;;;;;;;;;;205.30;1971.20;;;;;;5073328;28;19904;-77
2023/03/14 05:07:58;;;;;;;;;;;205.40;1971.20;;;;;;5072024;28;19951;-77
2023/03/14 05:10:25;;;;;;;;;;;205.40;1971.20;;;;;;5072005;28;19973;-77
2023/03/14 05:12:51;;;;;;;;;;;205.40;1945.60;;;;;;5074401;28;19909;-76
2023/03/14 05:15:16;;;;;;;;;;;205.40;1971.20;;;;;;5075531;28;19908;-76
2023/03/14 05:17:42;;;;;;;;;;;205.50;1945.60;;;;;;5077030;28;19904;-76
2023/03/14 05:20:14;;;;;;;;;;;205.50;1945.60;;;;;;5092356;28;19908;-77
2023/03/14 05:22:39;;;;;;;;;;;205.70;1920.00;;;;;;5075520;28;19904;-77
2023/03/14 05:25:05;;;;;;;;;;;205.60;1920.00;;;;;;5092352;28;19947;-77
2023/03/14 05:27:31;;;;;;;;;;;205.70;1894.40;;;;;;5073639;28;19912;-77
2023/03/14 05:29:57;;;;;;;;;;;230.40;1843.20;;;;;;5056760;28;19929;-77
2023/03/14 05:32:22;;;;;;;;;;;230.40;1868.80;;;;;;5070303;28;20400;-77
2023/03/14 05:34:48;;;;;;;;;;;230.40;1843.20;;;;;;5076611;28;19993;-76
2023/03/14 05:37:13;;;;;;;;;;;230.40;1868.80;;;;;;5075226;28;19939;-77
2023/03/14 05:39:39;;;;;;;;;;;230.40;1868.80;;;;;;5071859;28;19931;-76
2023/03/14 05:42:08;;;;;;;;;;;230.40;1843.20;;;;;;5071661;28;19930;-76
2023/03/14 05:44:33;;;;;;;;;;;230.40;1843.20;;;;;;5075243;28;19912;-76
2023/03/14 05:46:59;;;;;;;;;;;230.50;1843.20;;;;;;5076334;28;19912;-77
2023/03/14 05:49:25;;;;;;;;;;;230.50;1843.20;;;;;;5061170;28;19905;-77
2023/03/14 05:51:51;;;;;;;;;;;230.50;1868.80;;;;;;5076305;28;19904;-76
2023/03/14 05:54:16;;;;;;;;;;;230.50;1843.20;;;;;;5073059;28;19962;-76
2023/03/14 05:56:42;;;;;;;;;;;230.60;1843.20;;;;;;5064976;28;20341;-77
2023/03/14 05:59:08;;;;;;;;;;;230.60;1817.60;;;;;;5076196;28;20422;-77
2023/03/14 06:01:34;;;;;;;;;;;230.60;1817.60;;;;;;5091897;28;19994;-76
2023/03/14 06:04:00;;;;;;;;;;;230.60;1817.60;;;;;;5076064;28;19912;-76
2023/03/14 06:06:25;;;;;;;;;;;230.70;1792.00;;;;;;5075026;28;20288;-77
2023/03/14 06:08:51;;;;;;;;;;;230.70;1792.00;;;;;;5075807;28;19920;-77
2023/03/14 06:11:16;;;;;;;;;;;230.70;1792.00;;;;;;5091512;28;19916;-77
2023/03/14 06:13:42;;;;;;;;;;;230.70;1792.00;;;;;;5075939;28;19911;-76
2023/03/14 06:16:08;;;;;;;;;;;230.80;1817.60;;;;;;5075850;28;20012;-76
2023/03/14 06:18:33;;;;;;;;;;;230.80;1792.00;;;;;;5075589;28;20410;-76
2023/03/14 06:20:59;;;;;;;;;;;230.80;1792.00;;;;;;5062192;28;19928;-75
2023/03/14 06:23:25;;;;;;;;;;;230.80;1817.60;;;;;;5075153;28;20011;-75
2023/03/14 06:25:50;;;;;;;;;;;230.90;1792.00;;;;;;5065884;28;19908;-76
2023/03/14 06:28:16;;;;;;;;;;;230.90;1792.00;;;;;;5071714;28;19912;-75
2023/03/14 06:30:42;;;;;;;;;;;230.90;1766.40;;;;;;5075031;28;19905;-76
2023/03/14 06:33:07;;;;;;;;;;;230.90;1792.00;;;;;;5073898;28;19924;-76
2023/03/14 06:35:33;;;;;;;;;;;231.00;1766.40;;;;;;5073994;28;19912;-76
2023/03/14 06:37:59;;;;;;;;;;;231.00;1766.40;;;;;;5075400;28;19951;-77
2023/03/14 06:40:24;;;;;;;;;;;231.00;1766.40;;;;;;5074003;28;19912;-76
2023/03/14 06:42:50;;;;;;;;;;;231.00;1792.00;;;;;;5090947;28;19910;-76
2023/03/14 06:45:15;;;;;;;;;;;231.10;1792.00;;;;;;5088755;28;19944;-76
2023/03/14 06:47:41;;;;;;;;;;;231.10;1792.00;;;;;;5091170;28;19916;-76
2023/03/14 06:50:07;;;;;;;;;;;231.20;1792.00;;;;;;5074558;28;19916;-76
2023/03/14 06:52:33;;;;;;;;;;;231.20;1766.40;;;;;;5074991;28;19951;-76
2023/03/14 06:54:58;;;;;;;;;;;231.20;1766.40;;;;;;5070894;28;20364;-77
2023/03/14 06:57:24;;;;;;;;;;;231.20;1766.40;;;;;;5054713;28;20376;-79
2023/03/14 06:59:49;;;;;;;;;;;231.30;1766.40;;;;;;5054082;28;20000;-81
2023/03/14 07:02:15;;;;;;;;;;;231.30;1740.80;;;;;;5056821;28;19912;-78
2023/03/14 07:04:41;;;;;;;;;;;256.00;1740.80;;;;;;5073623;28;19904;-78
2023/03/14 07:07:06;;;;;;;;;;;256.00;1740.80;;;;;;5090303;28;19904;-78
2023/03/14 07:09:33;;;;;;;;;;;256.00;1715.20;;;;;;5091003;28;19911;-79
2023/03/14 07:11:58;;;;;;;;;;;256.10;1715.20;;;;;;5074092;28;19904;-76
2023/03/14 07:14:24;;;;;;;;;;;256.10;1715.20;;;;;;5076428;28;19962;-77
2023/03/14 07:16:50;;;;;;;;;;;256.20;1715.20;;;;;;5077235;28;20412;-76
2023/03/14 07:19:15;;;;;;;;;;;256.20;1715.20;;;;;;5059266;28;19962;-78
2023/03/14 07:21:41;;;;;;;;;;;256.20;1715.20;;;;;;5065678;28;19905;-76
2023/03/14 07:24:06;;;;;;;;;;;256.30;1715.20;;;;;;5073159;28;20337;-76
2023/03/14 07:26:33;;;;;;;;;;;256.30;1715.20;;;;;;5061484;28;19912;-80
2023/03/14 07:28:58;;;;;;;;;;;256.40;1689.60;;;;;;5073370;28;19916;-77
2023/03/14 07:31:24;;;;;;;;;;;256.40;1689.60;;;;;;5074537;28;21357;-78
2023/03/14 07:33:50;;;;;;;;;;;256.50;1689.60;;;;;;5065152;28;19917;-78
2023/03/14 07:36:15;;;;;;;;;;;256.50;1689.60;;;;;;5066315;28;20323;-82
2023/03/14 07:38:41;;;;;;;;;;;256.60;1689.60;;;;;;5073345;28;19908;-79
2023/03/14 07:41:07;;;;;;;;;;;256.70;1664.00;;;;;;5073463;28;20179;-79
2023/03/14 07:43:33;;;;;;;;;;;256.70;1689.60;;;;;;5073324;28;19909;-78
2023/03/14 07:45:59;;;;;;;;;;;256.70;1664.00;;;;;;5063658;28;19916;-82
2023/03/14 07:48:24;;;;;;;;;;;256.80;1664.00;;;;;;5066492;28;19913;-80
2023/03/14 07:50:54;;;;;;;;;;;256.90;1664.00;;;;;;5064598;28;19904;-82
2023/03/14 07:53:20;;;;;;;;;;;281.60;1689.60;;;;;;5072464;28;19915;-78
2023/03/14 07:55:45;;;;;;;;;;;281.60;1689.60;;;;;;5072717;28;20303;-77
2023/03/14 07:58:11;;;;;;;;;;;281.70;1689.60;;;;;;5059402;28;19931;-78
2023/03/14 08:00:37;;;;;;;;;;;281.60;1664.00;;;;;;5076361;28;19908;-79
2023/03/14 08:03:03;;;;;;;;;;;281.80;1664.00;;;;;;5073988;28;19927;-80
2023/03/14 08:05:28;;;;;;;;;;;281.70;1664.00;;;;;;5073061;28;20353;-76
2023/03/14 08:07:54;;;;;;;;;;;281.80;1664.00;;;;;;5073084;28;19916;-80
2023/03/14 08:10:23;;;;;;;;;;;281.80;1638.40;;;;;;5074056;28;19908;-83
2023/03/14 08:12:49;;;;;;;;;;;281.90;1664.00;;;;;;5073228;28;19908;-79
2023/03/14 08:15:14;;;;;;;;;;;282.00;1664.00;;;;;;5073275;28;19934;-82
2023/03/14 08:17:40;;;;;;;;;;;282.00;1664.00;;;;;;5073987;28;19905;-81
2023/03/14 08:20:11;;;;;;;;;;;282.10;1664.00;;;;;;5073817;28;20018;-81
2023/03/14 08:22:37;;;;;;;;;;;282.20;1664.00;;;;;;5064476;28;19959;-83
2023/03/14 08:25:03;;;;;;;;;;;282.20;1638.40;;;;;;5069753;28;20277;-79
2023/03/14 08:27:28;;;;;;;;;;;282.30;1664.00;;;;;;5072887;28;19912;-78
2023/03/14 08:29:54;;;;;;;;;;;282.30;1638.40;;;;;;5088913;28;20008;-78
2023/03/14 08:32:20;;;;;;;;;;;282.30;1664.00;;;;;;5089655;28;19911;-78
2023/03/14 08:34:46;;;;;;;;;;;282.40;1638.40;;;;;;5071332;28;20352;-78
2023/03/14 08:37:11;;;;;;;;;;;282.50;1638.40;;;;;;5061434;28;19940;-76
2023/03/14 08:39:37;;;;;;;;;;;307.20;1689.60;;;;;;5073483;28;19915;-77
2023/03/14 08:42:03;;;;;;;;;;;307.30;1664.00;;;;;;5073544;28;19905;-77
2023/03/14 08:44:28;;;;;;;;;;;307.40;1689.60;;;;;;5072592;28;19953;-77
2023/03/14 08:46:54;;;;;;;;;;;307.50;1664.00;;;;;;5075103;28;19995;-76
2023/03/14 08:49:20;;;;;;;;;;;307.60;1638.40;;;;;;5076173;28;19991;-77
2023/03/14 08:51:45;;;;;;;;;;;307.70;1638.40;;;;;;5062709;28;20003;-76
2023/03/14 08:54:11;;;;;;;;;;;307.80;1638.40;;;;;;5075813;28;19904;-81
2023/03/14 08:56:40;;;;;;;;;;;307.80;1612.80;;;;;;5077461;28;19995;-77
2023/03/14 08:59:05;;;;;;;;;;;307.90;1612.80;;;;;;5089020;28;19905;-76
2023/03/14 09:01:31;;;;;;;;;;;308.00;1612.80;;;;;;5068358;28;20062;-79
2023/03/14 09:17:51;;;;;;;12.70;6.20;;;308.10;1561.60;;;;;;5095203;27;20390;-81
2023/03/14 09:20:17;;;;;;;10.70;5.25;;;333.60;1510.40;;;;;;5094388;28;20029;-78
2023/03/14 09:22:43;;;;;;;11.68;5.55;;;333.60;1536.00;;;;;;5101821;28;20032;-79
2023/03/14 09:25:10;;;;;;;10.57;5.50;;;333.60;1510.40;;;;;;5094907;28;20468;-79
2023/03/14 09:27:36;;;;;;;10.73;3.47;;;333.60;1536.00;;;;;;5096253;28;20445;-79
2023/03/14 09:30:02;;;;;;;12.02;5.50;;;333.60;1510.40;;;;;;5099182;28;20111;-80
2023/03/14 09:32:28;;;;;;;9.50;4.57;;;333.60;1510.40;;;;;;5092900;28;20032;-80
2023/03/14 09:34:54;;;;;;;11.20;4.30;;;333.70;1510.40;;;;;;5098063;28;20051;-79
2023/03/14 09:37:20;;;;;;;12.68;5.55;;;333.70;1510.40;;;;;;5094494;28;20024;-78
2023/03/14 09:39:46;;;;;;;11.70;5.30;;;358.50;1510.40;;;;;;5091896;28;20389;-79
2023/03/14 09:42:17;;;;;;;10.95;5.40;;;358.50;1510.40;;;;;;5103913;28;20024;-78
2023/03/14 09:44:50;;;;;;;9.27;4.60;;;358.50;1510.40;;;;;;5095946;28;20162;-79
2023/03/14 09:47:19;;;;;;;12.23;5.50;;;358.50;1484.80;;;;;;5084958;28;20574;-78
2023/03/14 09:49:45;;;;;;;17.35;7.25;;;358.60;1484.80;;;;;;5091518;28;20051;-87
2023/03/14 09:52:39;;;;;;;34.28;10.15;;;358.70;1459.20;;;;;;5099851;28;20046;-80
2023/03/14 09:55:10;;;;;;;10.82;5.28;;;358.80;1459.20;;;;;;4979798;28;20415;-79
2023/03/14 09:57:37;;;;;;;9.82;5.85;;;358.80;1433.60;;;;;;4986818;28;20061;-87
2023/03/14 10:00:15;;;;;;;6.80;3.95;;;358.90;1433.60;;;;;;4988171;28;20502;-79
2023/03/14 10:18:12;;;;;;;11.93;4.43;;;384.00;1382.40;;;;;;5053527;27;1395807;-76
2023/03/14 10:21:00;;;;;;;6.57;3.92;;;384.60;1280.00;;;;;;5078149;28;20036;-82
2023/03/14 10:23:31;;;;;;;9.90;3.88;;;384.40;1280.00;;;;;;5067000;28;20021;-82
2023/03/14 10:26:08;;;;;;;11.13;3.90;;;384.40;1280.00;;;;;;5052024;28;20477;-77
2023/03/14 10:28:42;;;;;;;11.40;4.82;;;384.30;1280.00;;;;;;5069684;28;20038;-76
2023/03/14 10:31:08;;;;;;;9.90;5.43;;;384.50;1280.00;;;;;;5063981;28;20085;-77
2023/03/14 10:33:35;;;;;;;13.85;5.65;;;384.70;1280.00;;;;;;5070846;28;20485;-81
2023/03/14 10:36:05;;;;;;;14.25;6.28;;;409.60;1305.60;;;;;;5076830;28;20067;-79
2023/03/14 10:38:36;;;;;;;8.23;4.63;;;409.90;1280.00;;;;;;5064679;28;20490;-78
2023/03/14 10:41:14;;;;;;;13.13;5.57;;;410.10;1254.40;;;;;;5065205;28;20043;-80
2023/03/14 10:43:40;;;;;;;22.83;6.90;;;410.40;1254.40;;;;;;5080340;28;20547;-82
2023/03/14 10:46:06;;;;;;;18.85;5.57;;;435.40;1254.40;;;;;;5049573;28;20039;-80
2023/03/14 10:48:36;;;;;;;15.05;5.38;;;435.40;1254.40;;;;;;5068926;28;20040;-77
2023/03/14 10:51:18;;;;;;;10.50;4.13;;;435.40;1228.80;;;;;;5056375;28;20071;-83
2023/03/14 10:53:49;;;;;;;8.10;4.68;;;435.40;1203.20;;;;;;5066722;28;20025;-81
2023/03/14 10:56:20;;;;;;;19.10;5.00;;;435.80;1177.60;;;;;;5048588;28;20024;-76
2023/03/14 10:58:49;;;;;;;7.88;4.75;;;436.10;1177.60;;;;;;5066412;28;20482;-82
2023/03/14 11:01:34;;;;;;;7.85;4.50;;;460.90;1177.60;;;;;;5064846;28;20054;-83
2023/03/14 11:04:14;;;;;;;13.27;6.22;;;461.20;1152.00;;;;;;5048587;28;20025;-78
2023/03/14 11:07:02;;;;;;;14.82;6.57;;;461.40;1152.00;;;;;;5049324;28;20064;-83
2023/03/14 11:09:58;;;;;;;13.65;4.88;;;461.50;1152.00;;;;;;5067449;28;20217;-82
2023/03/14 11:12:43;;;;;;;18.58;5.75;;;461.20;1177.60;;;;;;5057539;28;20462;-82
2023/03/14 11:15:19;;;;;;;15.93;4.97;;;460.90;1177.60;;;;;;5051974;28;20040;-80
2023/03/14 11:17:56;;;;;;;7.55;4.68;;;436.10;1152.00;;;;;;5049534;28;20053;-79
2023/03/14 11:20:32;;;;;;;10.60;4.85;;;435.80;1152.00;;;;;;5048956;28;20560;-83
2023/03/14 11:23:12;;;;;;;;;;;435.70;1177.60;;;;;;5052465;28;20082;-83
2023/03/14 11:25:53;;;;;;;10.73;4.07;;;435.90;1177.60;;;;;;5042375;28;19917;-78
2023/03/14 11:28:48;;;;;;;10.80;4.57;;;435.90;1152.00;;;;;;5052861;28;20036;-78
2023/03/14 11:31:33;;;;;;;19.67;5.82;;;436.00;1152.00;;;;;;5044091;28;20021;-75
2023/03/14 11:34:25;;;;;;;9.25;4.32;;;436.10;1177.60;;;;;;5073034;28;20032;-77
2023/03/14 11:36:56;;;;;;;5.43;3.45;;;436.00;1177.60;;;;;;5072895;28;20036;-76
2023/03/14 11:39:25;;;;;;;7.28;3.60;;;436.00;1152.00;;;;;;5055470;28;20020;-76
2023/03/14 11:41:53;;;;;;;8.40;3.90;;;436.10;1152.00;;;;;;5074576;28;20103;-77
2023/03/14 11:44:34;;;;;;;10.57;4.10;;;460.80;1177.60;;;;;;5054573;28;20021;-76
2023/03/14 11:47:07;;;;;;;9.90;3.72;;;460.80;1177.60;;;;;;5040848;28;20482;-77
2023/03/14 11:49:57;;;;;;;9.13;4.20;;;436.10;1152.00;;;;;;5056705;28;20040;-77
2023/03/14 11:52:32;;;;;;;5.93;3.33;;;460.90;1177.60;;;;;;5048465;28;20032;-77
2023/03/14 11:55:05;;;;;;;5.93;3.47;;;461.10;1177.60;;;;;;5056371;28;20028;-77
2023/03/14 11:57:31;;;;;;;8.38;4.03;;;461.30;1152.00;;;;;;5074499;28;20104;-76
2023/03/14 12:00:12;;;;;;;8.68;3.60;;;461.30;1152.00;;;;;;5045364;28;20100;-76
2023/03/14 12:02:56;;;;;;;19.42;3.90;;;461.40;1152.00;;;;;;5074371;28;20020;-77
2023/03/14 12:05:35;;;;;;;12.45;3.25;;;461.70;1152.00;;;;;;5049068;28;20028;-77
2023/03/14 12:08:07;;;;;;;7.18;3.70;;;486.40;1126.40;;;;;;5072237;28;20040;-77
2023/03/14 12:10:49;;;;;;;8.98;3.75;;;461.70;1126.40;;;;;;5056447;28;20024;-77
2023/03/14 12:13:16;;;;;;;7.13;3.50;;;461.60;1126.40;;;;;;5042793;28;20478;-77
2023/03/14 12:15:54;;;;;;;9.85;3.80;;;461.50;1126.40;;;;;;5069884;28;20108;-77
2023/03/14 12:18:26;;;;;;;9.25;4.10;;;461.70;1126.40;;;;;;5042978;28;20049;-78
2023/03/14 12:20:55;;;;;;;8.25;4.25;;;486.50;1100.80;;;;;;5052142;28;20496;-77
2023/03/14 12:23:22;;;;;;;10.82;3.83;;;486.70;1100.80;;;;;;5054043;28;20106;-77
2023/03/14 12:26:05;;;;;;;6.07;3.58;;;486.70;1100.80;;;;;;5042295;28;20033;-77
2023/03/14 12:28:31;;;;;;;8.65;4.22;;;487.00;1075.20;;;;;;5051008;28;20095;-77
2023/03/14 12:31:32;;;;;;;8.43;3.72;;;487.20;1075.20;;;;;;5053052;28;20043;-77
2023/03/14 12:34:33;;;;;;;8.52;3.97;;;487.10;1075.20;;;;;;5054317;28;20032;-78
2023/03/14 12:37:13;;;;;;;8.00;3.88;;;487.00;1075.20;;;;;;5048187;28;20033;-77
2023/03/14 12:39:58;;;;;;;9.38;3.97;;;486.70;1075.20;;;;;;5046394;28;20032;-78
2023/03/14 12:42:30;;;;;;;14.95;3.92;;;486.70;1075.20;;;;;;5064042;28;20152;-77
2023/03/14 12:45:20;;;;;;;15.30;4.05;;;486.50;1075.20;;;;;;5051306;28;20029;-77
2023/03/14 12:48:09;;;;;;;5.65;3.47;;;486.40;1075.20;;;;;;5048482;28;20516;-77
2023/03/14 12:50:43;;;;;;;8.95;4.32;;;486.40;1075.20;;;;;;5051075;28;20152;-78
2023/03/14 12:53:11;;;;;;;7.28;3.50;;;486.40;1075.20;;;;;;5052422;28;20039;-77
2023/03/14 12:55:46;;;;;;;10.48;3.80;;;486.60;1075.20;;;;;;5051805;28;20037;-77
2023/03/14 12:58:31;;;;;;;5.03;3.00;;;486.40;1075.20;;;;;;5053314;28;20021;-77
2023/03/14 13:01:04;;;;;;;10.82;5.43;;;461.60;1075.20;;;;;;5049506;28;20020;-76
2023/03/14 13:03:55;;;;;;;9.88;3.97;;;461.40;1100.80;;;;;;5049780;28;20028;-76
2023/03/14 13:07:00;;;;;;;8.02;3.70;;;461.30;1126.40;;;;;;5037273;28;20525;-79
2023/03/14 13:09:32;;;;;;;7.80;4.57;;;461.20;1152.00;;;;;;5056212;28;20040;-79
2023/03/14 13:12:08;;;;;;;7.85;3.70;;;461.10;1152.00;;;;;;5050178;28;20025;-76
2023/03/14 13:14:35;;;;;;;9.60;4.03;;;461.10;1152.00;;;;;;5069010;28;20032;-78
2023/03/14 13:17:02;;;;;;;6.60;3.65;;;461.00;1152.00;;;;;;5046753;28;20395;-78
2023/03/14 13:19:31;;;;;;;8.32;3.88;;;461.00;1152.00;;;;;;5048289;28;20036;-77
2023/03/14 13:22:03;;;;;;;7.53;3.88;;;461.00;1177.60;;;;;;5052171;28;20528;-78
2023/03/14 13:24:31;;;;;;;9.00;3.55;;;461.00;1177.60;;;;;;5039496;28;22034;-76
2023/03/14 13:26:57;;;;;;;6.07;3.42;;;461.00;1177.60;;;;;;5042657;28;20037;-80
2023/03/14 13:29:26;;;;;;;6.50;3.72;;;461.00;1177.60;;;;;;5053558;28;20021;-79
2023/03/14 13:31:54;;;;;;;7.68;3.88;;;461.00;1177.60;;;;;;5053262;28;20124;-83
2023/03/14 13:34:20;;;;;;;9.02;4.03;;;461.00;1177.60;;;;;;5043994;28;20025;-79
2023/03/14 13:36:49;;;;;;;9.25;3.58;;;461.00;1177.60;;;;;;5041233;28;20025;-78
2023/03/14 13:39:21;;;;;;;11.40;4.32;;;461.00;1177.60;;;;;;5048511;28;20064;-79
2023/03/14 13:41:48;;;;;;;11.02;4.45;;;461.00;1177.60;;;;;;5054571;28;20033;-78
2023/03/14 13:44:27;;;;;;;13.02;5.47;;;461.00;1177.60;;;;;;5072870;28;20021;-77
2023/03/14 13:47:01;;;;;;;17.17;5.88;;;461.00;1177.60;;;;;;5072489;28;20032;-76
2023/03/14 13:49:28;;;;;;;6.38;3.33;;;461.00;1152.00;;;;;;5054704;28;20031;-77
2023/03/14 13:51:54;;;;;;;9.85;4.40;;;461.10;1152.00;;;;;;5051669;28;20025;-77